createdAt,value
2023-02-23T00:01:54.497Z,78391.41
2023-02-23T00:04:23.728Z,78407.63
2023-02-23T00:06:55.231Z,78421.81
2023-02-23T00:09:23.153Z,78434.00
2023-02-23T00:11:55.890Z,78434.00
2023-02-23T00:14:31.361Z,78425.88
2023-02-23T00:17:00.021Z,78417.78
2023-02-23T00:19:27.675Z,78417.78
2023-02-23T00:21:55.045Z,78409.66
2023-02-23T00:24:23.515Z,78409.66
2023-02-23T00:26:51.596Z,78401.53
2023-02-23T00:29:22.223Z,78401.53
2023-02-23T00:31:50.802Z,78401.53
2023-02-23T00:34:21.903Z,78401.53
2023-02-23T00:36:56.931Z,78405.59
2023-02-23T00:39:29.342Z,78401.53
2023-02-23T00:42:03.595Z,78405.59
2023-02-23T00:44:32.777Z,78395.47
2023-02-23T00:47:00.960Z,78389.38
2023-02-23T00:49:28.210Z,78393.44
2023-02-23T00:51:55.475Z,78393.44
2023-02-23T00:54:23.041Z,78389.38
2023-02-23T00:56:50.562Z,78389.38
2023-02-23T00:59:19.336Z,78393.44
2023-02-23T01:01:46.463Z,78399.50
2023-02-23T01:04:13.837Z,78407.63
2023-02-23T01:06:41.766Z,78403.56
2023-02-23T01:09:13.706Z,78409.66
2023-02-23T01:11:41.993Z,78409.66
2023-02-23T01:14:10.653Z,78409.66
2023-02-23T01:16:39.039Z,78409.66
2023-02-23T01:19:07.097Z,78417.78
2023-02-23T01:21:38.242Z,78419.78
2023-02-23T01:24:06.366Z,78425.88
2023-02-23T01:26:38.244Z,78425.88
2023-02-23T01:29:11.374Z,78425.88
2023-02-23T01:31:41.242Z,78429.94
2023-02-23T01:34:11.959Z,78429.94
2023-02-23T01:36:41.091Z,78429.94
2023-02-23T01:39:12.307Z,78417.78
2023-02-23T01:41:44.614Z,78431.97
2023-02-23T01:44:15.081Z,78434.00
2023-02-23T01:46:45.620Z,78434.00
2023-02-23T01:49:34.649Z,78425.88
2023-02-23T01:52:11.072Z,78425.88
2023-02-23T01:54:43.845Z,78429.94
2023-02-23T01:57:14.637Z,78429.94
2023-02-23T01:59:45.143Z,78434.00
2023-02-23T02:02:13.722Z,78442.09
2023-02-23T02:04:46.300Z,78438.06
2023-02-23T02:07:17.223Z,78442.09
2023-02-23T02:10:09.488Z,78446.16
2023-02-23T02:12:58.157Z,78442.09
2023-02-23T02:15:33.193Z,78442.09
2023-02-23T02:18:26.685Z,78442.09
2023-02-23T02:21:24.584Z,78444.13
2023-02-23T02:24:15.267Z,78446.16
2023-02-23T02:26:52.625Z,78438.06
2023-02-23T02:29:26.405Z,78442.09
2023-02-23T02:32:12.099Z,78442.09
2023-02-23T02:35:07.737Z,78442.09
2023-02-23T02:38:12.853Z,78446.16
2023-02-23T02:41:13.704Z,78438.06
2023-02-23T02:43:51.291Z,78427.91
2023-02-23T02:46:25.262Z,78413.72
2023-02-23T02:49:31.650Z,78413.72
2023-02-23T02:52:11.859Z,78409.66
2023-02-23T02:54:48.875Z,78405.59
2023-02-23T02:57:18.381Z,78401.53
2023-02-23T03:00:06.865Z,78409.66
2023-02-23T03:02:56.134Z,78401.53
2023-02-23T03:05:47.790Z,78405.59
2023-02-23T03:08:40.994Z,78409.66
2023-02-23T03:11:31.884Z,78401.53
2023-02-23T03:14:53.986Z,78401.53
2023-02-23T03:17:55.917Z,78417.78
2023-02-23T03:20:46.208Z,78425.88
2023-02-23T03:23:42.409Z,78425.88
2023-02-23T03:26:40.325Z,78417.78
2023-02-23T03:29:29.520Z,78423.84
2023-02-23T03:32:22.904Z,78413.72
2023-02-23T03:35:22.640Z,78403.56
2023-02-23T03:38:17.403Z,78397.50
2023-02-23T03:41:07.281Z,78395.47
2023-02-23T03:44:00.580Z,78389.38
2023-02-23T03:46:50.269Z,78377.22
2023-02-23T03:49:37.745Z,78373.16
2023-02-23T03:52:35.541Z,78367.06
2023-02-23T03:55:26.482Z,78373.16
2023-02-23T03:58:19.795Z,78358.94
2023-02-23T04:01:08.697Z,78360.97
2023-02-23T04:04:00.373Z,78348.81
2023-02-23T04:06:51.634Z,78344.75
2023-02-23T04:09:37.375Z,78340.69
2023-02-23T04:12:34.484Z,78340.69
2023-02-23T04:15:19.915Z,78344.75
2023-02-23T04:17:47.224Z,78336.66
2023-02-23T04:20:14.732Z,78328.53
2023-02-23T04:22:41.710Z,78340.69
2023-02-23T04:25:10.058Z,78336.66
2023-02-23T04:27:37.207Z,78336.66
2023-02-23T04:30:05.907Z,78336.66
2023-02-23T04:32:32.886Z,78324.47
2023-02-23T04:35:00.539Z,78324.47
2023-02-23T04:37:27.530Z,78326.50
2023-02-23T04:39:54.859Z,78324.47
2023-02-23T04:42:21.681Z,78320.41
2023-02-23T04:44:49.896Z,78322.44
2023-02-23T04:47:17.574Z,78320.41
2023-02-23T04:49:45.207Z,78324.47
2023-02-23T04:52:12.783Z,78328.53
2023-02-23T04:54:41.129Z,78332.59
2023-02-23T04:57:09.005Z,78340.69
2023-02-23T04:59:36.988Z,78326.50
2023-02-23T05:02:04.337Z,78332.59
2023-02-23T05:04:35.425Z,78320.41
2023-02-23T05:07:03.895Z,78320.41
2023-02-23T05:09:31.348Z,78316.34
2023-02-23T05:11:58.772Z,78316.34
2023-02-23T05:14:26.201Z,78320.41
2023-02-23T05:16:53.569Z,78320.41
2023-02-23T05:19:21.555Z,78320.41
2023-02-23T05:21:50.635Z,78316.34
2023-02-23T05:24:18.925Z,78316.34
2023-02-23T05:26:46.514Z,78312.31
2023-02-23T05:29:14.297Z,78304.19
2023-02-23T05:31:42.560Z,78312.31
2023-02-23T05:34:10.365Z,78310.28
2023-02-23T05:36:38.340Z,78316.34
2023-02-23T05:39:05.569Z,78316.34
2023-02-23T05:41:32.906Z,78318.38
2023-02-23T05:44:00.414Z,78312.31
2023-02-23T05:46:28.243Z,78320.41
2023-02-23T05:49:00.893Z,78316.34
2023-02-23T05:51:30.061Z,78308.25
2023-02-23T05:53:57.973Z,78304.19
2023-02-23T05:56:25.619Z,78304.19
2023-02-23T05:58:57.864Z,78296.09
2023-02-23T06:01:26.350Z,78287.97
2023-02-23T06:03:53.809Z,78292.03
2023-02-23T06:06:22.365Z,78292.03
2023-02-23T06:08:50.114Z,78287.97
2023-02-23T06:11:18.003Z,78287.97
2023-02-23T06:13:45.625Z,78279.84
2023-02-23T06:16:13.002Z,78275.81
2023-02-23T06:18:40.979Z,78269.72
2023-02-23T06:21:08.678Z,78259.56
2023-02-23T06:23:36.293Z,78265.66
2023-02-23T06:26:03.332Z,78263.63
2023-02-23T06:28:30.704Z,78275.81
2023-02-23T06:30:57.852Z,78263.63
2023-02-23T06:33:25.667Z,78259.56
2023-02-23T06:35:54.791Z,78271.75
2023-02-23T06:38:22.248Z,78271.75
2023-02-23T06:40:49.514Z,78271.75
2023-02-23T06:43:17.134Z,78251.47
2023-02-23T06:45:46.092Z,78247.41
2023-02-23T06:48:13.254Z,78251.47
2023-02-23T06:50:40.141Z,78245.38
2023-02-23T06:53:07.473Z,78239.28
2023-02-23T06:55:34.457Z,78239.28
2023-02-23T06:58:02.177Z,78239.28
2023-02-23T07:00:30.562Z,78231.19
2023-02-23T07:02:58.363Z,78221.03
2023-02-23T07:05:26.332Z,78219.00
2023-02-23T07:07:53.715Z,78227.13
2023-02-23T07:10:21.043Z,78229.16
2023-02-23T07:12:48.438Z,78223.06
2023-02-23T07:15:18.124Z,78219.00
2023-02-23T07:17:48.796Z,78210.91
2023-02-23T07:20:16.218Z,78194.69
2023-02-23T07:22:43.551Z,78182.50
2023-02-23T07:25:11.203Z,78182.50
2023-02-23T07:27:38.675Z,78174.41
2023-02-23T07:30:06.203Z,78154.13
2023-02-23T07:32:34.094Z,78150.06
2023-02-23T07:35:03.266Z,78166.28
2023-02-23T07:37:30.761Z,78162.22
2023-02-23T07:39:59.481Z,78158.16
2023-02-23T07:42:28.634Z,78146.00
2023-02-23T07:44:56.276Z,78146.00
2023-02-23T07:47:30.859Z,78137.91
2023-02-23T07:49:59.815Z,78119.63
2023-02-23T07:52:27.389Z,78101.38
2023-02-23T07:54:54.833Z,78068.94
2023-02-23T07:57:23.980Z,78073.00
2023-02-23T07:59:51.965Z,78068.94
2023-02-23T08:02:19.646Z,78056.78
2023-02-23T08:04:47.998Z,78036.50
2023-02-23T08:07:15.538Z,78000.00
2023-02-23T08:09:42.866Z,77987.81
2023-02-23T08:12:10.580Z,77979.72
2023-02-23T08:14:37.508Z,77991.88
2023-02-23T08:17:04.743Z,77995.94
2023-02-23T08:19:32.081Z,77983.75
2023-02-23T08:21:59.735Z,77987.81
2023-02-23T08:24:27.218Z,78004.03
2023-02-23T08:26:54.550Z,77995.94
2023-02-23T08:29:22.359Z,78000.00
2023-02-23T08:31:51.745Z,77995.94
2023-02-23T08:34:20.236Z,77983.75
2023-02-23T08:36:47.674Z,77987.81
2023-02-23T08:39:15.701Z,78004.03
2023-02-23T08:41:42.900Z,78004.03
2023-02-23T08:44:10.238Z,77995.94
2023-02-23T08:46:37.929Z,77975.66
2023-02-23T08:49:06.092Z,77963.50
2023-02-23T08:51:35.077Z,77963.50
2023-02-23T08:54:02.433Z,77943.22
2023-02-23T08:56:30.792Z,77916.84
2023-02-23T08:58:57.801Z,77904.69
2023-02-23T09:01:25.300Z,77876.28
2023-02-23T09:03:52.368Z,77868.19
2023-02-23T09:06:22.398Z,77878.31
2023-02-23T09:08:50.563Z,77868.19
2023-02-23T09:11:18.723Z,77843.84
2023-02-23T09:13:46.214Z,77837.75
2023-02-23T09:16:13.783Z,77813.44
2023-02-23T09:18:41.297Z,77797.19
2023-02-23T09:21:19.397Z,77768.81
2023-02-23T09:23:48.350Z,77748.53
2023-02-23T09:26:18.060Z,77746.50
2023-02-23T09:28:45.439Z,77758.69
2023-02-23T09:31:16.151Z,77750.56
2023-02-23T09:33:43.314Z,77732.31
2023-02-23T09:36:19.741Z,77699.88
2023-02-23T09:38:49.053Z,77699.88
2023-02-23T09:41:25.336Z,77691.75
2023-02-23T09:44:12.639Z,77689.72
2023-02-23T09:47:14.152Z,77691.75
2023-02-23T09:49:45.361Z,77679.59
2023-02-23T09:52:20.811Z,77667.44
2023-02-23T09:54:48.309Z,77671.47
2023-02-23T09:57:21.505Z,77679.59
2023-02-23T09:59:48.648Z,77685.69
2023-02-23T10:02:32.333Z,77671.47
2023-02-23T10:05:05.841Z,77671.47
2023-02-23T10:07:51.457Z,77651.19
2023-02-23T10:10:26.321Z,77659.31
2023-02-23T10:13:42.104Z,77653.22
2023-02-23T10:16:42.867Z,77643.09
2023-02-23T10:19:23.206Z,77622.81
2023-02-23T10:21:56.674Z,77590.38
2023-02-23T10:24:45.452Z,77557.94
2023-02-23T10:27:19.306Z,77543.72
2023-02-23T10:29:51.717Z,77537.66
2023-02-23T10:32:46.224Z,77533.59
2023-02-23T10:35:19.912Z,77525.47
2023-02-23T10:37:48.140Z,77517.38
2023-02-23T10:40:23.024Z,77545.75
2023-02-23T10:42:54.295Z,77537.66
2023-02-23T10:45:24.811Z,77517.38
2023-02-23T10:48:04.235Z,77489.00
2023-02-23T10:50:33.151Z,77464.66
2023-02-23T10:53:35.967Z,77440.31
2023-02-23T10:56:15.993Z,77442.34
2023-02-23T10:58:46.814Z,77432.22
2023-02-23T11:01:32.443Z,77432.22
2023-02-23T11:04:14.450Z,77411.94
2023-02-23T11:06:43.814Z,77411.94
2023-02-23T11:09:43.760Z,77379.50
2023-02-23T11:12:43.394Z,77359.22
2023-02-23T11:15:46.563Z,77330.84
2023-02-23T11:18:34.031Z,77326.78
2023-02-23T11:21:02.013Z,77324.75
2023-02-23T11:23:35.841Z,77310.56
2023-02-23T11:26:06.261Z,77306.50
2023-02-23T11:28:42.674Z,77326.78
2023-02-23T11:31:18.873Z,77322.72
2023-02-23T11:33:47.969Z,77300.44
2023-02-23T11:36:29.134Z,77290.28
2023-02-23T11:39:16.850Z,77282.19
2023-02-23T11:41:44.331Z,77270.00
2023-02-23T11:44:23.409Z,77294.34
2023-02-23T11:46:52.177Z,77278.13
2023-02-23T11:49:33.342Z,77288.25
2023-02-23T11:52:00.543Z,77290.28
2023-02-23T11:54:31.083Z,77278.13
2023-02-23T11:56:58.889Z,77261.91
2023-02-23T11:59:37.279Z,77245.69
2023-02-23T12:02:15.862Z,77229.47
2023-02-23T12:04:47.659Z,77233.53
2023-02-23T12:07:41.864Z,77217.28
2023-02-23T12:10:18.949Z,77201.06
2023-02-23T12:13:16.371Z,77201.06
2023-02-23T12:15:52.508Z,77197.03
2023-02-23T12:18:34.869Z,77205.13
2023-02-23T12:21:12.307Z,77203.09
2023-02-23T12:23:43.591Z,77192.97
2023-02-23T12:26:18.110Z,77188.91
2023-02-23T12:28:54.402Z,77170.66
2023-02-23T12:31:31.142Z,77156.47
2023-02-23T12:34:05.235Z,77156.47
2023-02-23T12:36:52.597Z,77144.31
2023-02-23T12:39:25.755Z,77144.31
2023-02-23T12:41:53.162Z,77148.38
2023-02-23T12:44:35.092Z,77146.34
2023-02-23T12:47:15.062Z,77152.41
2023-02-23T12:49:48.015Z,77152.41
2023-02-23T12:52:28.008Z,77148.38
2023-02-23T12:54:55.354Z,77154.44
2023-02-23T12:57:48.477Z,77156.47
2023-02-23T13:00:24.213Z,77158.50
2023-02-23T13:03:44.181Z,77144.31
2023-02-23T13:06:23.264Z,77150.41
2023-02-23T13:09:02.626Z,77140.25
2023-02-23T13:11:47.666Z,77144.31
2023-02-23T13:14:20.284Z,77132.16
2023-02-23T13:17:01.407Z,77105.78
2023-02-23T13:19:47.648Z,77095.66
2023-02-23T13:22:30.821Z,77099.72
2023-02-23T13:25:04.571Z,77113.91
2023-02-23T13:27:40.628Z,77136.19
2023-02-23T13:30:12.695Z,77144.31
2023-02-23T13:32:39.640Z,77144.31
2023-02-23T13:35:20.490Z,77136.19
2023-02-23T13:38:07.553Z,77124.03
2023-02-23T13:41:10.374Z,77132.16
2023-02-23T13:44:18.328Z,77128.09
2023-02-23T13:46:59.459Z,77107.81
2023-02-23T13:49:47.127Z,77095.66
2023-02-23T13:52:33.280Z,77095.66
2023-02-23T13:55:05.742Z,77083.50
2023-02-23T13:57:35.897Z,77087.53
2023-02-23T14:00:03.556Z,77087.53
2023-02-23T14:02:41.368Z,77091.59
2023-02-23T14:05:25.106Z,77095.66
2023-02-23T14:08:07.711Z,77087.53
2023-02-23T14:10:43.494Z,77089.56
2023-02-23T14:13:13.529Z,77099.72
2023-02-23T14:15:49.958Z,77087.53
2023-02-23T14:18:26.170Z,77083.50
2023-02-23T14:21:12.975Z,77085.50
2023-02-23T14:24:18.107Z,77071.31
2023-02-23T14:27:15.094Z,77071.31
2023-02-23T14:30:21.650Z,77063.22
2023-02-23T14:32:51.253Z,77061.19
2023-02-23T14:35:34.684Z,77051.06
2023-02-23T14:38:07.585Z,77038.88
2023-02-23T14:40:41.083Z,77034.84
2023-02-23T14:43:53.171Z,77030.78
2023-02-23T14:46:24.027Z,77034.84
2023-02-23T14:49:19.415Z,77030.78
2023-02-23T14:51:48.726Z,77030.78
2023-02-23T14:54:36.143Z,77030.78
2023-02-23T14:57:25.777Z,77038.88
2023-02-23T14:59:58.870Z,77038.88
2023-02-23T15:02:29.239Z,77034.84
2023-02-23T15:04:57.718Z,77038.88
2023-02-23T15:07:41.780Z,77042.94
2023-02-23T15:10:24.493Z,77047.00
2023-02-23T15:12:52.150Z,77061.19
2023-02-23T15:15:23.743Z,77065.25
2023-02-23T15:17:55.451Z,77067.28
2023-02-23T15:20:28.913Z,77059.16
2023-02-23T15:22:59.276Z,77065.25
2023-02-23T15:25:35.614Z,77067.28
2023-02-23T15:28:33.320Z,77075.38
2023-02-23T15:31:02.390Z,77087.53
2023-02-23T15:33:30.456Z,77095.66
2023-02-23T15:36:09.454Z,77091.59
2023-02-23T15:38:47.062Z,77099.72
2023-02-23T15:41:33.139Z,77099.72
2023-02-23T15:44:12.628Z,77111.88
2023-02-23T15:46:41.707Z,77115.94
2023-02-23T15:49:12.916Z,77128.09
2023-02-23T15:51:50.622Z,77136.19
2023-02-23T15:54:24.571Z,77144.31
2023-02-23T15:56:57.300Z,77152.41
2023-02-23T15:59:35.436Z,77152.41
2023-02-23T16:02:04.493Z,77152.41
2023-02-23T16:04:33.614Z,77160.53
2023-02-23T16:07:14.793Z,77168.63
2023-02-23T16:09:50.776Z,77180.81
2023-02-23T16:12:25.059Z,77188.91
2023-02-23T16:14:57.201Z,77195.00
2023-02-23T16:17:27.065Z,77207.16
2023-02-23T16:20:24.832Z,77199.06
2023-02-23T16:22:53.815Z,77201.06
2023-02-23T16:25:24.679Z,77205.13
2023-02-23T16:28:03.547Z,77209.19
2023-02-23T16:30:31.266Z,77209.19
2023-02-23T16:33:21.792Z,77213.25
2023-02-23T16:36:06.680Z,77213.25
2023-02-23T16:38:55.533Z,77215.28
2023-02-23T16:41:23.821Z,77223.38
2023-02-23T16:43:53.678Z,77225.41
2023-02-23T16:46:25.357Z,77227.44
2023-02-23T16:48:52.387Z,77221.34
2023-02-23T16:51:23.088Z,77225.41
2023-02-23T16:53:52.516Z,77225.41
2023-02-23T16:56:22.340Z,77225.41
2023-02-23T16:58:57.375Z,77231.50
2023-02-23T17:01:24.782Z,77229.47
2023-02-23T17:03:54.312Z,77223.38
2023-02-23T17:06:22.807Z,77225.41
2023-02-23T17:08:58.098Z,77221.34
2023-02-23T17:11:26.117Z,77217.28
2023-02-23T17:13:53.202Z,77221.34
2023-02-23T17:16:21.152Z,77221.34
2023-02-23T17:18:49.001Z,77221.34
2023-02-23T17:21:22.932Z,77225.41
2023-02-23T17:23:51.483Z,77223.38
2023-02-23T17:26:24.282Z,77213.25
2023-02-23T17:28:53.986Z,77217.28
2023-02-23T17:31:24.728Z,77219.31
2023-02-23T17:33:53.658Z,77209.19
2023-02-23T17:36:21.531Z,77217.28
2023-02-23T17:38:49.006Z,77217.28
2023-02-23T17:41:18.622Z,77213.25
2023-02-23T17:43:46.085Z,77209.19
2023-02-23T17:46:13.793Z,77205.13
2023-02-23T17:48:44.872Z,77199.06
2023-02-23T17:51:13.694Z,77192.97
2023-02-23T17:53:40.908Z,77184.84
2023-02-23T17:56:09.529Z,77182.84
2023-02-23T17:58:37.821Z,77176.75
2023-02-23T18:01:07.199Z,77172.69
2023-02-23T18:03:36.827Z,77168.63
2023-02-23T18:06:07.832Z,77168.63
2023-02-23T18:08:35.725Z,77164.59
2023-02-23T18:11:03.160Z,77160.53
2023-02-23T18:13:30.906Z,77160.53
2023-02-23T18:16:06.220Z,77164.59
2023-02-23T18:18:33.214Z,77158.50
2023-02-23T18:21:00.863Z,77158.50
2023-02-23T18:23:32.497Z,77160.53
2023-02-23T18:26:15.133Z,77158.50
2023-02-23T18:28:44.513Z,77156.47
2023-02-23T18:31:19.586Z,77152.41
2023-02-23T18:33:53.010Z,77152.41
2023-02-23T18:36:22.015Z,77152.41
2023-02-23T18:38:49.260Z,77152.41
2023-02-23T18:41:16.981Z,77152.41
2023-02-23T18:43:43.935Z,77148.38
2023-02-23T18:46:13.290Z,77146.34
2023-02-23T18:48:41.267Z,77148.38
2023-02-23T18:51:12.395Z,77152.41
2023-02-23T18:53:39.324Z,77148.38
2023-02-23T18:56:16.222Z,77144.31
2023-02-23T18:58:44.943Z,77142.28
2023-02-23T19:01:20.586Z,77144.31
2023-02-23T19:03:49.294Z,77148.38
2023-02-23T19:06:17.911Z,77140.25
2023-02-23T19:08:49.280Z,77140.25
2023-02-23T19:11:16.357Z,77140.25
2023-02-23T19:13:43.388Z,77140.25
2023-02-23T19:16:10.674Z,77140.25
2023-02-23T19:18:37.549Z,77138.22
2023-02-23T19:21:04.943Z,77136.19
2023-02-23T19:23:31.901Z,77140.25
2023-02-23T19:26:02.471Z,77136.19
2023-02-23T19:28:30.215Z,77136.19
2023-02-23T19:31:15.937Z,77128.09
2023-02-23T19:33:43.550Z,77128.09
2023-02-23T19:36:13.885Z,77128.09
2023-02-23T19:38:45.741Z,77124.03
2023-02-23T19:41:16.511Z,77124.03
2023-02-23T19:43:43.774Z,77124.03
2023-02-23T19:46:13.852Z,77124.03
2023-02-23T19:48:40.818Z,77122.00
2023-02-23T19:51:12.962Z,77128.09
2023-02-23T19:53:40.183Z,77122.00
2023-02-23T19:56:10.928Z,77119.97
2023-02-23T19:58:38.315Z,77124.03
2023-02-23T20:01:11.953Z,77124.03
2023-02-23T20:03:43.346Z,77124.03
2023-02-23T20:06:13.468Z,77128.09
2023-02-23T20:08:42.227Z,77124.03
2023-02-23T20:11:09.577Z,77132.16
2023-02-23T20:13:38.670Z,77128.09
2023-02-23T20:16:11.743Z,77124.03
2023-02-23T20:18:40.222Z,77124.03
2023-02-23T20:21:16.401Z,77126.06
2023-02-23T20:23:44.661Z,77128.09
2023-02-23T20:26:15.130Z,77132.16
2023-02-23T20:28:42.338Z,77132.16
2023-02-23T20:31:20.103Z,77128.09
2023-02-23T20:33:50.837Z,77128.09
2023-02-23T20:36:22.268Z,77124.03
2023-02-23T20:38:49.233Z,77124.03
2023-02-23T20:41:17.365Z,77130.13
2023-02-23T20:43:44.935Z,77132.16
2023-02-23T20:46:14.774Z,77130.13
2023-02-23T20:48:42.671Z,77119.97
2023-02-23T20:51:13.748Z,77128.09
2023-02-23T20:53:42.025Z,77124.03
2023-02-23T20:56:10.088Z,77119.97
2023-02-23T20:58:37.207Z,77124.03
2023-02-23T21:01:10.692Z,77119.97
2023-02-23T21:03:37.680Z,77119.97
2023-02-23T21:06:05.136Z,77119.97
2023-02-23T21:08:32.176Z,77111.88
2023-02-23T21:11:05.257Z,77117.94
2023-02-23T21:13:34.030Z,77115.94
2023-02-23T21:16:02.992Z,77111.88
2023-02-23T21:18:31.386Z,77115.94
2023-02-23T21:21:09.637Z,77107.81
2023-02-23T21:23:38.589Z,77111.88
2023-02-23T21:26:14.351Z,77107.81
2023-02-23T21:28:46.614Z,77107.81
2023-02-23T21:31:14.568Z,77107.81
2023-02-23T21:33:43.483Z,77103.75
2023-02-23T21:36:12.423Z,77103.75
2023-02-23T21:38:42.472Z,77103.75
2023-02-23T21:41:12.331Z,77099.72
2023-02-23T21:43:41.278Z,77099.72
2023-02-23T21:46:16.452Z,77099.72
2023-02-23T21:48:43.966Z,77095.66
2023-02-23T21:51:13.092Z,77095.66
2023-02-23T21:53:40.965Z,77087.53
2023-02-23T21:56:17.737Z,77083.50
2023-02-23T21:58:50.982Z,77091.59
2023-02-23T22:01:24.681Z,77079.44
2023-02-23T22:03:54.763Z,77083.50
2023-02-23T22:06:28.541Z,77083.50
2023-02-23T22:08:56.689Z,77077.41
2023-02-23T22:11:26.291Z,77075.38
2023-02-23T22:13:59.335Z,77075.38
2023-02-23T22:16:32.303Z,77067.28
2023-02-23T22:19:03.644Z,77063.22
2023-02-23T22:21:33.454Z,77063.22
2023-02-23T22:24:01.700Z,77073.34
2023-02-23T22:26:30.335Z,77067.28
2023-02-23T22:28:57.328Z,77063.22
2023-02-23T22:31:25.048Z,77051.06
2023-02-23T22:33:52.181Z,77051.06
2023-02-23T22:36:19.968Z,77051.06
2023-02-23T22:38:46.905Z,77042.94
2023-02-23T22:41:14.144Z,77047.00
2023-02-23T22:43:46.126Z,77042.94
2023-02-23T22:46:16.282Z,77038.88
2023-02-23T22:48:45.066Z,77047.00
2023-02-23T22:51:14.198Z,77036.84
2023-02-23T22:53:41.336Z,77030.78
2023-02-23T22:56:09.708Z,77030.78
2023-02-23T22:58:36.987Z,77030.78
2023-02-23T23:01:06.331Z,77034.84
2023-02-23T23:03:47.991Z,77030.78
2023-02-23T23:06:17.950Z,77034.84
2023-02-23T23:08:45.757Z,77032.81
2023-02-23T23:11:16.099Z,77026.72
2023-02-23T23:13:46.526Z,77020.63
2023-02-23T23:16:31.551Z,77010.50
2023-02-23T23:19:02.890Z,77002.41
2023-02-23T23:21:32.779Z,77000.38
2023-02-23T23:24:05.675Z,76986.16
2023-02-23T23:26:35.542Z,76986.16
2023-02-23T23:29:07.894Z,76980.09
2023-02-23T23:31:35.611Z,76971.97
2023-02-23T23:34:06.040Z,76969.94
2023-02-23T23:36:42.964Z,76961.84
2023-02-23T23:39:16.330Z,76953.75
2023-02-23T23:41:46.819Z,76949.69
2023-02-23T23:44:19.126Z,76945.63
2023-02-23T23:46:47.272Z,76933.47
2023-02-23T23:49:17.255Z,76925.34
2023-02-23T23:51:47.855Z,76921.31
2023-02-23T23:54:18.055Z,76909.13
2023-02-23T23:56:45.342Z,76901.03
2023-02-23T23:59:17.638Z,76892.91
